Archiv-/Tagesdaten

--Timestamp---	Temp	Chill	HIndex	Humid	Dewpt	 Wind 	HiWind	WindDir	Rain 	Barom	Solar	 ET  	 UV 
--------------	----	-----	------	-----	-----	------	------	-------	-----	-----	-----	-----	----
20100312 00:00	-2.7	-2.7	-2.7	91	-4.0	5	8	292	0.0	1016.1	0	0.000	0.0
20100312 00:05	-2.8	-2.8	-2.8	91	-4.0	5	6	292	0.0	1015.9	0	0.000	0.0
20100312 00:10	-2.8	-2.8	-2.8	91	-4.0	3	5	292	0.0	1015.9	0	0.000	0.0
20100312 00:15	-2.8	-2.8	-2.8	91	-4.0	3	6	292	0.0	1015.9	0	0.000	0.0
20100312 00:20	-2.8	-2.8	-2.8	91	-4.0	3	6	292	0.2	1015.9	0	0.000	0.0
20100312 00:25	-2.8	-2.8	-2.8	91	-4.0	5	6	292	0.0	1015.9	0	0.000	0.0
20100312 00:30	-2.8	-2.8	-2.8	91	-4.0	5	8	292	0.0	1016.0	0	0.000	0.0
20100312 00:35	-2.8	-2.8	-2.8	91	-4.0	5	8	292	0.0	1016.0	0	0.000	0.0
20100312 00:40	-2.8	-2.8	-2.8	91	-4.0	5	8	292	0.0	1016.0	0	0.000	0.0
20100312 00:45	-2.8	-2.8	-2.8	91	-4.0	5	10	292	0.0	1016.0	0	0.000	0.0
20100312 00:50	-2.8	-2.8	-2.8	91	-4.0	5	10	292	0.0	1016.0	0	0.000	0.0
20100312 00:55	-2.8	-2.8	-2.8	91	-4.0	5	10	292	0.0	1016.0	0	0.000	0.0
20100312 01:00	-2.8	-2.8	-2.8	91	-4.0	5	8	292	0.0	1016.0	0	0.000	0.0
20100312 01:05	-2.8	-2.8	-2.8	91	-4.0	5	6	292	0.0	1016.2	0	0.000	0.0
20100312 01:10	-2.8	-2.8	-2.8	91	-4.1	5	6	292	0.0	1016.2	0	0.000	0.0
20100312 01:15	-2.9	-2.9	-2.9	91	-4.1	5	8	292	0.0	1016.2	0	0.000	0.0
20100312 01:20	-2.9	-2.9	-2.9	91	-4.2	5	8	292	0.0	1016.2	0	0.000	0.0
20100312 01:25	-3.0	-3.0	-3.0	91	-4.3	5	8	292	0.0	1016.3	0	0.000	0.0
20100312 01:30	-3.0	-3.0	-3.0	91	-4.3	5	8	292	0.0	1016.3	0	0.000	0.0
20100312 01:35	-3.1	-3.1	-3.1	91	-4.3	5	8	292	0.0	1016.4	0	0.000	0.0
20100312 01:40	-3.1	-3.1	-3.1	91	-4.3	5	8	292	0.0	1016.4	0	0.000	0.0
20100312 01:45	-3.1	-3.1	-3.1	91	-4.3	5	8	292	0.0	1016.4	0	0.000	0.0
20100312 01:50	-3.2	-3.2	-3.2	91	-4.4	5	8	292	0.2	1016.4	0	0.000	0.0
20100312 01:55	-3.2	-3.2	-3.2	91	-4.4	5	8	292	0.0	1016.4	0	0.000	0.0
20100312 02:00	-3.2	-3.2	-3.2	91	-4.4	5	10	292	0.0	1016.4	0	0.000	0.0
20100312 02:05	-3.2	-3.2	-3.2	91	-4.4	5	10	292	0.0	1016.4	0	0.000	0.0
20100312 02:10	-3.1	-5.8	-3.1	91	-4.4	6	11	292	0.0	1016.4	0	0.000	0.0
20100312 02:15	-3.1	-5.7	-3.1	91	-4.3	6	11	292	0.0	1016.4	0	0.000	0.0
20100312 02:20	-3.0	-5.6	-3.0	91	-4.3	6	10	270	0.0	1016.4	0	0.000	0.0
20100312 02:25	-3.0	-5.6	-3.0	91	-4.3	6	10	270	0.0	1016.4	0	0.000	0.0
20100312 02:30	-3.0	-5.6	-3.0	91	-4.3	6	8	270	0.0	1016.4	0	0.000	0.0
20100312 02:35	-3.0	-5.6	-3.0	91	-4.3	6	10	292	0.0	1016.5	0	0.000	0.0
20100312 02:40	-3.0	-5.6	-3.0	91	-4.3	6	10	270	0.0	1016.4	0	0.000	0.0
20100312 02:45	-3.0	-5.6	-3.0	90	-4.4	6	10	292	0.0	1016.5	0	0.000	0.0
20100312 02:50	-3.0	-5.6	-3.0	90	-4.4	6	11	292	0.0	1016.4	0	0.000	0.0
20100312 02:55	-3.0	-5.6	-3.0	90	-4.4	6	10	270	0.0	1016.4	0	0.000	0.0
20100312 03:00	-3.0	-5.6	-3.0	90	-4.4	6	10	292	0.0	1016.4	0	0.000	0.0
20100312 03:05	-3.0	-5.6	-3.0	90	-4.4	6	14	292	0.0	1016.4	0	0.000	0.0
20100312 03:10	-3.1	-5.7	-3.1	90	-4.5	6	10	292	0.0	1016.4	0	0.000	0.0
20100312 03:15	-3.1	-5.7	-3.1	90	-4.5	6	11	270	0.0	1016.4	0	0.000	0.0
20100312 03:20	-3.1	-6.4	-3.1	90	-4.5	8	13	270	0.0	1016.4	0	0.000	0.0
20100312 03:25	-3.1	-5.7	-3.1	90	-4.5	6	11	270	0.0	1016.4	0	0.000	0.0
20100312 03:30	-3.1	-6.4	-3.1	90	-4.5	8	14	270	0.0	1016.5	0	0.000	0.0
20100312 03:35	-3.2	-5.8	-3.2	90	-4.6	6	16	292	0.0	1016.6	0	0.000	0.0
20100312 03:40	-3.2	-5.9	-3.2	89	-4.8	6	16	270	0.0	1016.6	0	0.000	0.0
20100312 03:45	-3.3	-3.3	-3.3	89	-4.9	5	8	292	0.0	1016.6	0	0.000	0.0
20100312 03:50	-3.4	-3.4	-3.4	89	-5.0	5	8	292	0.0	1016.6	0	0.000	0.0
20100312 03:55	-3.6	-3.6	-3.6	89	-5.1	5	6	292	0.0	1016.6	0	0.000	0.0
20100312 04:00	-3.6	-3.6	-3.6	89	-5.2	5	8	292	0.0	1016.7	0	0.000	0.0
20100312 04:05	-3.7	-3.7	-3.7	89	-5.2	5	6	292	0.0	1016.8	0	0.000	0.0
20100312 04:10	-3.7	-3.7	-3.7	89	-5.2	5	8	292	0.0	1016.9	0	0.000	0.0
20100312 04:15	-3.6	-6.3	-3.6	90	-5.0	6	10	292	0.0	1016.8	0	0.000	0.0
20100312 04:20	-3.5	-6.2	-3.5	90	-4.9	6	11	292	0.0	1016.8	0	0.000	0.0
20100312 04:25	-3.5	-6.2	-3.5	90	-4.9	6	14	270	0.0	1016.8	0	0.000	0.0
20100312 04:30	-3.4	-3.4	-3.4	90	-4.8	5	8	270	0.0	1016.9	0	0.000	0.0
20100312 04:35	-3.4	-6.1	-3.4	90	-4.8	6	11	270	0.0	1016.9	0	0.000	0.0
20100312 04:40	-3.4	-6.1	-3.4	89	-4.9	6	11	270	0.0	1017.0	0	0.000	0.0
20100312 04:45	-3.3	-6.0	-3.3	89	-4.9	6	11	270	0.0	1017.0	0	0.000	0.0
20100312 04:50	-3.3	-6.0	-3.3	89	-4.9	6	11	270	0.0	1017.0	0	0.000	0.0
20100312 04:55	-3.3	-6.0	-3.3	89	-4.8	6	14	292	0.0	1017.0	0	0.000	0.0
20100312 05:00	-3.3	-3.3	-3.3	89	-4.8	5	8	292	0.0	1017.1	0	0.000	0.0
20100312 05:05	-3.2	-5.9	-3.2	89	-4.8	6	13	270	0.0	1017.2	0	0.000	0.0
20100312 05:10	-3.2	-5.9	-3.2	89	-4.8	6	11	270	0.0	1017.2	0	0.000	0.0
20100312 05:15	-3.2	-3.2	-3.2	89	-4.8	5	11	270	0.0	1017.3	0	0.000	0.0
20100312 05:20	-3.2	-5.9	-3.2	89	-4.8	6	10	270	0.0	1017.3	0	0.000	0.0
20100312 05:25	-3.2	-5.9	-3.2	89	-4.8	6	10	270	0.0	1017.3	0	0.000	0.0
20100312 05:30	-3.2	-5.9	-3.2	89	-4.8	6	11	270	0.0	1017.3	0	0.000	0.0
20100312 05:35	-3.2	-5.9	-3.2	89	-4.8	6	11	270	0.0	1017.4	0	0.000	0.0
20100312 05:40	-3.2	-3.2	-3.2	89	-4.8	5	8	270	0.0	1017.4	0	0.000	0.0
20100312 05:45	-3.3	-6.6	-3.3	89	-4.8	8	16	292	0.0	1017.5	0	0.000	0.0
20100312 05:50	-3.4	-7.7	-3.4	88	-5.1	11	18	292	0.0	1017.5	0	0.000	0.0
20100312 05:55	-3.6	-7.9	-3.6	87	-5.4	11	19	292	0.0	1017.5	0	0.000	0.0
20100312 06:00	-3.7	-7.1	-3.7	87	-5.6	8	16	292	0.0	1017.5	0	0.000	0.0
20100312 06:05	-3.9	-7.3	-3.9	86	-5.9	8	11	292	0.0	1017.7	0	0.000	0.0
20100312 06:10	-4.1	-6.9	-4.1	86	-6.1	6	11	292	0.0	1017.6	0	0.000	0.0
20100312 06:15	-4.2	-4.2	-4.2	87	-6.1	5	8	292	0.0	1017.7	0	0.000	0.0
20100312 06:20	-4.3	-4.3	-4.3	87	-6.2	5	8	292	0.0	1017.7	0	0.000	0.0
20100312 06:25	-4.4	-4.4	-4.4	87	-6.3	5	8	270	0.0	1017.7	0	0.000	0.0
20100312 06:30	-4.6	-4.6	-4.6	87	-6.4	5	8	270	0.0	1017.8	0	0.000	0.0
20100312 06:35	-4.6	-4.6	-4.6	88	-6.3	3	8	270	0.0	1018.0	0	0.000	0.0
20100312 06:40	-4.7	-4.7	-4.7	88	-6.3	3	8	270	0.0	1018.0	0	0.000	0.0
20100312 06:45	-4.7	-4.7	-4.7	88	-6.3	5	8	270	0.0	1018.0	0	0.000	0.0
20100312 06:50	-4.6	-4.6	-4.6	88	-6.3	5	8	270	0.0	1018.1	0	0.000	0.0
20100312 06:55	-4.7	-4.7	-4.7	88	-6.3	3	8	270	0.0	1018.1	0	0.000	0.0
20100312 07:00	-4.7	-4.7	-4.7	89	-6.2	5	10	270	0.0	1018.2	1	0.000	0.0
20100312 07:05	-4.7	-7.6	-4.7	89	-6.2	6	11	270	0.0	1018.2	5	0.000	0.0
20100312 07:10	-4.7	-4.7	-4.7	89	-6.3	3	6	270	0.0	1018.3	9	0.000	0.0
20100312 07:15	-4.8	-4.8	-4.8	89	-6.3	5	8	270	0.0	1018.5	11	0.000	0.0
20100312 07:20	-4.8	-4.8	-4.8	89	-6.4	5	6	270	0.0	1018.5	14	0.000	0.0
20100312 07:25	-4.9	-4.9	-4.9	89	-6.5	5	6	270	0.0	1018.6	14	0.000	0.0
20100312 07:30	-5.0	-5.0	-5.0	89	-6.5	5	10	270	0.0	1018.7	17	0.000	0.0
20100312 07:35	-5.1	-5.1	-5.1	89	-6.6	5	8	292	0.0	1018.8	18	0.000	0.0
20100312 07:40	-5.1	-5.1	-5.1	89	-6.6	3	6	270	0.0	1018.8	24	0.000	0.0
20100312 07:45	-5.1	-5.1	-5.1	89	-6.6	3	6	270	0.0	1018.8	26	0.000	0.0
20100312 07:50	-5.1	-5.1	-5.1	89	-6.6	5	8	270	0.0	1018.9	27	0.000	0.0
20100312 07:55	-5.1	-5.1	-5.1	89	-6.6	5	8	270	0.0	1018.9	31	0.000	0.0
20100312 08:00	-5.1	-5.1	-5.1	89	-6.6	3	6	270	0.0	1018.9	32	0.000	0.0
20100312 08:05	-5.1	-5.1	-5.1	89	-6.6	5	6	270	0.0	1019.0	33	0.000	0.0
20100312 08:10	-4.9	-4.9	-4.9	89	-6.5	5	8	270	0.0	1019.0	33	0.000	0.0
20100312 08:15	-4.8	-4.8	-4.8	89	-6.4	3	6	270	0.0	1019.1	35	0.000	0.0
20100312 08:20	-4.8	-4.8	-4.8	89	-6.3	5	8	270	0.0	1019.1	35	0.000	0.0
20100312 08:25	-4.7	-4.7	-4.7	89	-6.2	3	6	270	0.0	1019.0	36	0.000	0.0
20100312 08:30	-4.6	-4.6	-4.6	88	-6.3	5	8	270	0.0	1019.1	37	0.000	0.0
20100312 08:35	-4.5	-4.5	-4.5	88	-6.2	5	6	270	0.0	1019.1	38	0.000	0.0
20100312 08:40	-4.4	-4.4	-4.4	88	-6.1	3	6	270	0.0	1019.1	39	0.000	0.0
20100312 08:45	-4.3	-4.3	-4.3	87	-6.1	5	10	270	0.0	1019.2	39	0.000	0.0
20100312 08:50	-4.1	-4.1	-4.1	87	-5.9	5	8	270	0.0	1019.2	40	0.000	0.0
20100312 08:55	-3.9	-3.9	-3.9	87	-5.8	5	8	270	0.0	1019.3	42	0.000	0.0
20100312 09:00	-3.8	-3.8	-3.8	86	-5.8	5	8	270	0.0	1019.3	45	0.025	0.0
20100312 09:05	-3.6	-6.4	-3.6	86	-5.6	6	10	270	0.0	1019.3	46	0.000	0.0
20100312 09:10	-3.4	-3.4	-3.4	85	-5.6	5	8	270	0.0	1019.4	46	0.000	0.0
20100312 09:15	-3.3	-6.0	-3.3	85	-5.4	6	11	270	0.0	1019.4	47	0.000	0.0
20100312 09:20	-3.2	-3.2	-3.2	84	-5.5	5	8	270	0.0	1019.4	49	0.000	0.0
20100312 09:25	-3.0	-3.0	-3.0	84	-5.3	5	8	270	0.0	1019.3	49	0.000	0.0
20100312 09:30	-2.8	-5.5	-2.8	83	-5.3	6	11	270	0.0	1019.3	51	0.000	0.0
20100312 09:35	-2.7	-5.3	-2.7	83	-5.2	6	10	270	0.0	1019.3	53	0.000	0.0
20100312 09:40	-2.6	-5.1	-2.6	82	-5.2	6	10	270	0.0	1019.4	53	0.000	0.0
20100312 09:45	-2.4	-5.0	-2.4	82	-5.1	6	10	270	0.0	1019.3	53	0.000	0.0
20100312 09:50	-2.3	-5.5	-2.3	81	-5.1	8	14	270	0.0	1019.3	51	0.000	0.0
20100312 09:55	-2.2	-4.7	-2.2	81	-5.0	6	11	270	0.0	1019.4	52	0.000	0.0
20100312 10:00	-1.9	-1.9	-1.9	80	-4.9	5	8	270	0.0	1019.5	53	0.025	0.0
20100312 10:05	-1.8	-4.2	-1.8	79	-4.9	6	11	270	0.0	1019.3	54	0.000	0.0
20100312 10:10	-1.6	-4.0	-1.6	79	-4.7	6	10	270	0.0	1019.3	54	0.000	0.0
20100312 10:15	-1.4	-3.8	-1.4	78	-4.8	6	10	270	0.0	1019.3	55	0.000	0.2
20100312 10:20	-1.3	-3.7	-1.3	77	-4.8	6	14	292	0.0	1019.3	56	0.000	0.5
20100312 10:25	-1.2	-4.1	-1.2	76	-4.8	8	13	292	0.0	1019.3	61	0.000	0.5
20100312 10:30	-1.1	-4.0	-1.1	76	-4.7	8	16	270	0.0	1019.3	82	0.000	0.6
20100312 10:35	-0.8	-3.1	-0.8	75	-4.7	6	10	292	0.0	1019.2	95	0.000	0.6
20100312 10:40	-0.7	-3.5	-0.7	73	-4.9	8	16	270	0.0	1019.1	122	0.000	0.6
20100312 10:45	-0.6	-3.4	-0.6	72	-5.0	8	14	270	0.0	1019.1	164	0.000	0.7
20100312 10:50	-0.5	-3.8	-0.5	71	-5.1	10	16	270	0.0	1019.1	181	0.000	0.9
20100312 10:55	-0.4	-3.7	-0.4	70	-5.2	10	18	270	0.0	1019.1	192	0.000	1.2
20100312 11:00	-0.2	-3.5	-0.2	70	-5.0	10	16	248	0.0	1019.1	209	0.051	1.2
20100312 11:05	-0.1	-3.3	-0.1	69	-5.1	10	16	270	0.0	1019.1	232	0.000	1.9
20100312 11:10	0.2	-2.0	0.2	69	-4.8	6	11	270	0.0	1019.2	284	0.000	2.5
20100312 11:15	0.4	-2.3	0.4	69	-4.6	8	16	270	0.0	1019.1	374	0.000	2.9
20100312 11:20	0.6	-2.5	0.6	68	-4.7	10	16	292	0.0	1019.1	479	0.000	2.9
20100312 11:25	0.7	-2.8	0.7	68	-4.6	11	23	292	0.0	1019.2	496	0.000	3.0
20100312 11:30	0.8	-2.7	0.8	67	-4.6	11	19	270	0.0	1019.3	547	0.000	3.0
20100312 11:35	0.8	-2.3	0.8	67	-4.6	10	18	292	0.0	1019.2	504	0.000	3.1
20100312 11:40	0.7	-2.7	0.7	68	-4.5	11	18	270	0.0	1019.1	477	0.000	3.1
20100312 11:45	0.9	-2.1	0.9	68	-4.3	10	16	270	0.0	1019.1	505	0.000	3.2
20100312 11:50	1.1	-1.4	1.1	68	-4.1	8	11	270	0.0	1019.2	550	0.000	3.3
20100312 11:55	1.3	-1.2	1.3	68	-3.9	8	14	292	0.0	1019.2	567	0.000	3.3
20100312 12:00	1.3	-1.2	1.3	67	-4.1	8	14	270	0.0	1019.2	565	0.178	3.3
20100312 12:05	1.3	-1.6	1.3	67	-4.1	10	13	292	0.0	1019.3	566	0.000	3.3
20100312 12:10	1.6	-1.4	1.6	66	-4.1	10	18	292	0.0	1019.1	572	0.000	3.3
20100312 12:15	1.6	-1.7	1.6	65	-4.3	11	19	292	0.0	1019.1	588	0.000	3.4
20100312 12:20	1.3	-1.6	1.3	66	-4.3	10	16	270	0.0	1019.1	600	0.000	3.4
20100312 12:25	1.3	-2.0	1.3	65	-4.5	11	16	270	0.0	1019.1	610	0.000	3.4
20100312 12:30	1.5	-1.0	1.5	67	-4.0	8	13	270	0.0	1018.9	614	0.000	3.4
20100312 12:35	1.8	-1.1	1.8	65	-4.1	10	19	292	0.0	1019.0	618	0.000	3.4
20100312 12:40	2.0	-0.8	2.0	63	-4.3	10	19	315	0.0	1019.0	609	0.000	3.3
20100312 12:45	2.0	-0.4	2.0	63	-4.3	8	18	315	0.0	1019.0	618	0.000	3.3
20100312 12:50	2.2	-0.6	2.2	63	-4.1	10	18	292	0.0	1018.9	623	0.000	3.3
20100312 12:55	2.3	-0.1	2.3	63	-4.0	8	16	315	0.0	1018.9	618	0.000	3.3
20100312 13:00	2.1	-1.1	2.1	63	-4.2	11	19	315	0.0	1019.0	608	0.229	3.2
20100312 13:05	1.9	-2.0	1.9	63	-4.4	14	24	315	0.0	1019.1	608	0.000	3.2
20100312 13:10	1.8	-2.1	1.8	61	-4.9	14	23	315	0.0	1019.3	608	0.000	3.2
20100312 13:15	1.6	-2.3	1.6	62	-4.9	14	21	315	0.0	1019.2	608	0.000	3.1
20100312 13:20	1.6	-2.4	1.6	61	-5.1	14	23	315	0.0	1019.2	584	0.000	3.1
20100312 13:25	1.4	-2.6	1.4	61	-5.3	14	23	315	0.0	1019.2	598	0.000	3.1
20100312 13:30	1.4	-2.3	1.4	60	-5.5	13	23	315	0.0	1019.2	583	0.000	3.0
20100312 13:35	1.4	-2.3	1.4	60	-5.5	13	19	315	0.0	1019.2	580	0.000	3.0
20100312 13:40	1.4	-2.9	1.4	60	-5.5	16	23	315	0.0	1019.1	595	0.000	2.9
20100312 13:45	1.5	-1.8	1.5	61	-5.2	11	19	315	0.0	1019.1	583	0.000	2.9
20100312 13:50	1.7	-1.9	1.7	60	-5.3	13	21	315	0.0	1019.1	557	0.000	2.8
20100312 13:55	1.8	-1.4	1.8	61	-4.9	11	18	315	0.0	1019.1	563	0.000	2.7
20100312 14:00	1.8	-1.4	1.8	58	-5.5	11	18	315	0.0	1019.0	544	0.254	2.7
20100312 14:05	1.8	-1.7	1.8	59	-5.3	13	21	315	0.0	1018.9	546	0.000	2.6
20100312 14:10	1.9	-1.0	1.9	60	-5.0	10	18	315	0.0	1018.9	541	0.000	2.5
20100312 14:15	1.9	-0.5	1.9	62	-4.6	8	13	338	0.0	1018.9	521	0.000	2.4
20100312 14:20	2.0	-0.4	2.0	61	-4.7	8	16	315	0.0	1018.9	503	0.000	2.3
20100312 14:25	2.2	-0.6	2.2	61	-4.6	10	18	315	0.0	1018.9	518	0.000	2.3
20100312 14:30	2.3	-0.9	2.3	60	-4.7	11	18	315	0.0	1018.9	507	0.000	2.2
20100312 14:35	2.3	-0.4	2.3	60	-4.6	10	16	315	0.0	1018.9	490	0.000	2.2
20100312 14:40	2.4	-1.1	2.4	59	-4.8	13	19	315	0.0	1018.9	487	0.000	2.1
20100312 14:45	2.3	-0.5	2.3	61	-4.5	10	14	315	0.0	1018.9	494	0.000	2.0
20100312 14:50	2.2	-0.9	2.2	61	-4.5	11	21	315	0.0	1018.8	485	0.000	1.9
20100312 14:55	2.2	-0.9	2.2	61	-4.5	11	19	315	0.0	1018.9	484	0.000	1.9
20100312 15:00	2.3	-0.5	2.3	61	-4.5	10	16	315	0.0	1018.8	485	0.203	1.8
20100312 15:05	2.4	-0.7	2.4	61	-4.3	11	16	315	0.0	1018.9	504	0.000	1.8
20100312 15:10	2.8	0.6	2.8	61	-3.9	8	18	292	0.0	1018.7	575	0.000	1.8
20100312 15:15	3.2	1.0	3.2	60	-3.8	8	16	315	0.0	1018.6	555	0.000	1.7
20100312 15:20	2.9	0.3	2.9	60	-4.1	10	16	315	0.0	1018.7	304	0.000	1.4
20100312 15:25	2.7	0.4	2.7	62	-3.9	8	16	338	0.0	1018.9	315	0.000	1.3
20100312 15:30	2.4	-0.4	2.4	63	-3.9	10	14	338	0.0	1018.8	314	0.000	1.2
20100312 15:35	2.2	-1.0	2.2	62	-4.4	11	19	315	0.0	1018.8	297	0.000	1.2
20100312 15:40	2.1	-0.3	2.1	63	-4.2	8	14	315	0.0	1018.8	281	0.000	1.1
20100312 15:45	2.0	-0.4	2.0	65	-3.9	8	11	315	0.0	1018.8	271	0.000	1.0
20100312 15:50	1.9	0.1	1.9	66	-3.7	6	10	338	0.0	1018.9	263	0.000	0.9
20100312 15:55	1.9	0.1	1.9	65	-3.9	6	11	338	0.0	1018.8	254	0.000	0.9
20100312 16:00	1.9	0.0	1.9	67	-3.6	6	10	315	0.0	1019.0	260	0.152	0.8
20100312 16:05	1.8	-0.6	1.8	66	-3.8	8	14	338	0.0	1019.0	264	0.000	0.8
20100312 16:10	1.8	-0.1	1.8	66	-3.8	6	10	315	0.0	1019.0	262	0.000	0.7
20100312 16:15	1.9	1.9	1.9	67	-3.6	5	14	315	0.0	1019.0	282	0.000	0.7
20100312 16:20	2.1	0.3	2.1	66	-3.6	6	10	315	0.0	1018.9	313	0.000	0.6
20100312 16:25	2.3	2.3	2.3	65	-3.6	5	10	315	0.0	1018.9	301	0.000	0.6
20100312 16:30	2.3	2.3	2.3	66	-3.4	5	10	315	0.0	1018.9	271	0.000	0.5
20100312 16:35	2.3	2.3	2.3	65	-3.6	5	10	338	0.0	1018.9	282	0.000	0.5
20100312 16:40	2.3	0.5	2.3	66	-3.4	6	11	315	0.0	1018.9	236	0.000	0.0
20100312 16:45	2.3	2.3	2.3	65	-3.6	5	8	315	0.0	1018.9	219	0.000	0.0
20100312 16:50	2.2	2.2	2.2	65	-3.7	5	10	338	0.0	1019.0	180	0.000	0.0
20100312 16:55	2.1	2.1	2.1	66	-3.6	5	8	338	0.0	1019.0	154	0.000	0.0
20100312 17:00	1.9	0.1	1.9	66	-3.7	6	10	338	0.0	1019.0	204	0.102	0.0
20100312 17:05	1.9	1.9	1.9	66	-3.7	3	6	338	0.0	1019.1	188	0.000	0.0
20100312 17:10	1.9	1.9	1.9	67	-3.5	2	6	338	0.0	1019.1	156	0.000	0.0
20100312 17:15	1.9	1.9	1.9	66	-3.8	5	10	338	0.0	1019.2	116	0.000	0.0
20100312 17:20	1.7	-0.3	1.7	66	-4.0	6	14	315	0.0	1019.2	83	0.000	0.0
20100312 17:25	1.5	-1.0	1.5	65	-4.4	8	14	315	0.0	1019.2	61	0.000	0.0
20100312 17:30	1.3	-0.6	1.3	66	-4.3	6	10	315	0.0	1019.4	50	0.000	0.0
20100312 17:35	1.3	1.3	1.3	67	-4.1	5	8	315	0.0	1019.4	40	0.000	0.0
20100312 17:40	1.2	-0.8	1.2	67	-4.2	6	10	315	0.0	1019.5	34	0.000	0.0
20100312 17:45	1.1	-1.0	1.1	67	-4.4	6	10	315	0.0	1019.4	28	0.000	0.0
20100312 17:50	0.9	0.9	0.9	68	-4.3	5	8	315	0.0	1019.5	23	0.000	0.0
20100312 17:55	0.7	0.7	0.7	68	-4.6	3	6	315	0.0	1019.5	19	0.000	0.0
20100312 18:00	0.4	0.4	0.4	69	-4.6	5	6	315	0.0	1019.5	14	0.051	0.0
20100312 18:05	0.1	0.1	0.1	69	-4.9	5	6	315	0.0	1019.8	10	0.000	0.0
20100312 18:10	-0.1	-0.1	-0.1	70	-4.9	3	6	315	0.0	1019.9	6	0.000	0.0
20100312 18:15	-0.3	-0.3	-0.3	71	-4.9	0	3	315	0.0	1020.0	2	0.000	0.0
20100312 18:20	-0.4	-0.4	-0.4	71	-5.0	0	0	-100000	0.0	1020.2	0	0.000	0.0
20100312 18:25	-0.5	-0.5	-0.5	72	-4.9	0	0	-100000	0.0	1020.2	0	0.000	0.0
20100312 18:30	-0.6	-0.6	-0.6	72	-5.0	0	0	-100000	0.0	1020.3	0	0.000	0.0
20100312 18:35	-0.6	-0.6	-0.6	73	-4.8	0	0	-100000	0.0	1020.2	0	0.000	0.0
20100312 18:40	-0.6	-0.6	-0.6	74	-4.6	0	0	-100000	0.0	1020.3	0	0.000	0.0
20100312 18:45	-0.6	-0.6	-0.6	74	-4.6	0	0	-100000	0.0	1020.3	0	0.000	0.0
20100312 18:50	-0.6	-0.6	-0.6	75	-4.5	0	0	-100000	0.0	1020.4	0	0.000	0.0
20100312 18:55	-0.7	-0.7	-0.7	75	-4.6	0	2	315	0.0	1020.5	0	0.000	0.0
20100312 19:00	-0.8	-0.8	-0.8	76	-4.5	0	3	315	0.0	1020.5	0	0.000	0.0
20100312 19:05	-0.8	-0.8	-0.8	76	-4.5	0	3	315	0.0	1020.5	0	0.000	0.0
20100312 19:10	-0.9	-0.9	-0.9	76	-4.6	0	0	-100000	0.0	1020.7	0	0.000	0.0
20100312 19:15	-0.9	-0.9	-0.9	76	-4.6	0	2	315	0.0	1020.7	0	0.000	0.0
20100312 19:20	-1.0	-1.0	-1.0	77	-4.5	0	2	315	0.0	1020.7	0	0.000	0.0
20100312 19:25	-1.1	-1.1	-1.1	77	-4.6	0	3	315	0.0	1020.7	0	0.000	0.0
20100312 19:30	-1.1	-1.1	-1.1	77	-4.6	0	3	315	0.0	1020.8	0	0.000	0.0
20100312 19:35	-1.2	-1.2	-1.2	77	-4.7	2	3	315	0.0	1020.8	0	0.000	0.0
20100312 19:40	-1.3	-1.3	-1.3	77	-4.8	3	5	315	0.0	1020.8	0	0.000	0.0
20100312 19:45	-1.4	-1.4	-1.4	77	-4.9	0	3	315	0.0	1020.8	0	0.000	0.0
20100312 19:50	-1.6	-1.6	-1.6	77	-5.1	2	5	315	0.0	1020.9	0	0.000	0.0
20100312 19:55	-1.7	-1.7	-1.7	77	-5.2	2	5	315	0.0	1020.9	0	0.000	0.0
20100312 20:00	-1.7	-1.7	-1.7	77	-5.2	2	5	315	0.0	1021.0	0	0.000	0.0
20100312 20:05	-1.8	-1.8	-1.8	77	-5.3	2	5	315	0.0	1020.9	0	0.000	0.0
20100312 20:10	-1.8	-1.8	-1.8	77	-5.3	0	3	315	0.0	1021.0	0	0.000	0.0
20100312 20:15	-1.9	-1.9	-1.9	77	-5.4	2	3	315	0.0	1020.9	0	0.000	0.0
20100312 20:20	-1.9	-1.9	-1.9	77	-5.4	0	3	315	0.0	1021.0	0	0.000	0.0
20100312 20:25	-2.0	-2.0	-2.0	78	-5.3	2	5	315	0.0	1021.2	0	0.000	0.0
20100312 20:30	-2.1	-2.1	-2.1	78	-5.4	3	5	315	0.0	1021.3	0	0.000	0.0
20100312 20:35	-2.1	-2.1	-2.1	78	-5.4	3	6	315	0.0	1021.3	0	0.000	0.0
20100312 20:40	-2.1	-2.1	-2.1	78	-5.4	2	6	315	0.0	1021.3	0	0.000	0.0
20100312 20:45	-2.1	-2.1	-2.1	78	-5.4	2	5	315	0.0	1021.3	0	0.000	0.0
20100312 20:50	-2.2	-2.2	-2.2	78	-5.5	2	3	315	0.0	1021.4	0	0.000	0.0
20100312 20:55	-2.2	-2.2	-2.2	78	-5.5	2	6	315	0.0	1021.5	0	0.000	0.0
20100312 21:00	-2.2	-2.2	-2.2	78	-5.5	2	3	315	0.0	1021.5	0	0.000	0.0
20100312 21:05	-2.2	-2.2	-2.2	78	-5.5	3	5	315	0.0	1021.2	0	0.000	0.0
20100312 21:10	-2.4	-2.4	-2.4	78	-5.7	3	6	315	0.0	1021.2	0	0.000	0.0
20100312 21:15	-2.6	-2.6	-2.6	79	-5.7	3	6	315	0.0	1021.2	0	0.000	0.0
20100312 21:20	-2.6	-2.6	-2.6	79	-5.7	2	5	315	0.0	1021.3	0	0.000	0.0
20100312 21:25	-2.6	-2.6	-2.6	79	-5.7	2	5	315	0.0	1021.4	0	0.000	0.0
20100312 21:30	-2.7	-2.7	-2.7	79	-5.8	2	5	315	0.0	1021.4	0	0.000	0.0
20100312 21:35	-2.7	-2.7	-2.7	80	-5.7	3	5	315	0.0	1021.4	0	0.000	0.0
20100312 21:40	-2.8	-2.8	-2.8	80	-5.7	2	5	315	0.0	1021.5	0	0.000	0.0
20100312 21:45	-2.8	-2.8	-2.8	80	-5.7	0	0	-100000	0.0	1021.6	0	0.000	0.0
20100312 21:50	-2.8	-2.8	-2.8	80	-5.8	0	0	-100000	0.0	1021.5	0	0.000	0.0
20100312 21:55	-2.9	-2.9	-2.9	81	-5.7	0	3	315	0.0	1021.6	0	0.000	0.0
20100312 22:00	-2.9	-2.9	-2.9	81	-5.7	0	2	315	0.0	1021.6	0	0.000	0.0
20100312 22:05	-3.0	-3.0	-3.0	81	-5.8	0	3	315	0.0	1021.5	0	0.000	0.0
20100312 22:10	-2.9	-2.9	-2.9	81	-5.7	3	5	315	0.0	1021.5	0	0.000	0.0
20100312 22:15	-2.8	-2.8	-2.8	81	-5.6	3	5	315	0.0	1021.6	0	0.000	0.0
20100312 22:20	-2.8	-2.8	-2.8	81	-5.6	3	5	315	0.0	1021.5	0	0.000	0.0
20100312 22:25	-2.9	-2.9	-2.9	81	-5.7	3	5	315	0.0	1021.6	0	0.000	0.0
20100312 22:30	-2.9	-2.9	-2.9	81	-5.7	3	5	315	0.0	1021.6	0	0.000	0.0
20100312 22:35	-3.1	-3.1	-3.1	81	-5.8	3	5	315	0.0	1021.7	0	0.000	0.0
20100312 22:40	-3.2	-3.2	-3.2	81	-6.0	3	5	315	0.0	1021.6	0	0.000	0.0
20100312 22:45	-3.2	-3.2	-3.2	82	-5.8	3	5	315	0.0	1021.6	0	0.000	0.0
20100312 22:50	-3.2	-3.2	-3.2	82	-5.8	5	6	315	0.0	1021.6	0	0.000	0.0
20100312 22:55	-3.2	-3.2	-3.2	82	-5.8	5	6	292	0.0	1021.6	0	0.000	0.0
20100312 23:00	-3.2	-3.2	-3.2	82	-5.8	5	6	292	0.0	1021.6	0	0.000	0.0
20100312 23:05	-3.2	-3.2	-3.2	82	-5.8	5	6	292	0.0	1021.5	0	0.000	0.0
20100312 23:10	-3.2	-3.2	-3.2	83	-5.6	5	6	292	0.0	1021.5	0	0.000	0.0
20100312 23:15	-3.1	-3.1	-3.1	82	-5.7	5	8	270	0.0	1021.5	0	0.000	0.0
20100312 23:20	-3.1	-3.1	-3.1	83	-5.5	2	5	270	0.0	1021.5	0	0.000	0.0
20100312 23:25	-3.0	-3.0	-3.0	83	-5.5	3	5	270	0.0	1021.5	-100000	0.000	0.0
20100312 23:30	-2.9	-2.9	-2.9	83	-5.4	2	3	270	0.0	1021.6	0	0.000	0.0
20100312 23:35	-2.8	-2.8	-2.8	83	-5.3	3	5	270	0.0	1021.6	0	0.000	0.0
20100312 23:40	-2.8	-2.8	-2.8	83	-5.3	3	6	270	0.0	1021.6	0	0.000	0.0
20100312 23:45	-2.9	-2.9	-2.9	82	-5.5	3	6	270	0.0	1021.5	0	0.000	0.0
20100312 23:50	-2.9	-2.9	-2.9	83	-5.4	3	6	270	0.0	1021.5	0	0.000	0.0
20100312 23:55	-2.8	-2.8	-2.8	83	-5.3	3	5	270	0.0	1021.5	0	0.000	0.0



Please note the license to use and transfer of this data:
http://creativecommons.org/licenses/by-nc-sa/3.0/deed.en

Bitte beachten sie die Lizenz zur Verwertung und Weitergabe der Daten:
http://creativecommons.org/licenses/by-nc-sa/3.0/deed.de

zurück zur Übersicht der Archivdaten (Monats und Tagesdaten)

Cookies helfen bei der Bereitstellung von Inhalten. Durch die Nutzung dieser Seiten erklärst du dich damit einverstanden, dass Cookies auf deinem Rechner gespeichert werden. Weitere Information